Terminal Aerodrome Forecast
Issued by NWS

Home | Current Version | Previous Version | Text Only | Print | Product List | Glossary On
Versions: 1 2 3 4 5 6 7 8 9 10 11 12 13 14 15 16
000
FTUS44 KOUN 231136
TAFHBR
TAF
KHBR 231136Z 2312/2412 18015KT P6SM SKC
     FM231500 18019G28KT P6SM SCT150
     FM232300 17026G33KT P6SM BKN100 PROB30 2323/2403 2SM TSRA
      BKN030CB
     FM240900 34020G30KT P6SM BKN030=

USA.gov is the U.S. government's official web portal to all federal, state and local government web resources and services.